Nearby METAR Reports

 

EGVO - Odiham Raf, United Kingdom
Distance from station: ESE 6mi, 10km
Updated: Sun, 18-Feb-2018 03:50 GMT
Fog
Fog
 Wind from S
Wind: S 9 mph , 15 km/h
Temperature: 41°F , 5°C
Wind Chill: 35°F , 2°C
Dew Point: 41°F , 5°C
Humidity: 100%
Barometer: 30.15 inHg , 1021 hPa
Summary: Fog
Visibility: 0 mile , 0 km
2018/02/18 03:50 EGVO 180350Z 18008KT 0300 FG VV/// 05/05 Q1021 RED
EGLF - Farnborough, United Kingdom
Distance from station: E 14mi, 22km
Updated: Sat, 17-Feb-2018 19:50 GMT
NOT Current
Few Clouds
Few Clouds
 Wind from SSW
Wind: SSW 10 mph , 17 km/h
Temperature: 43°F , 6°C
Wind Chill: 37°F , 3°C
Dew Point: 37°F , 3°C
Humidity: 81%
Barometer: 30.21 inHg , 1023 hPa
Clouds: Few Clouds
Visibility: 6 miles , 10 km
Cloud details: Few Clouds 4400 ft
2018/02/17 19:50 EGLF 171950Z 20009KT 9999 FEW044 06/03 Q1023
 
EGVP - Middle Wallop, United Kingdom
Distance from station: WSW 23mi, 36km
Updated: Sun, 18-Feb-2018 03:50 GMT
Mostly Cloudy
Mostly Cloudy
 Wind from SE
Wind: SE 6 mph , 9 km/h
Temperature: 39°F , 4°C
Wind Chill: 35°F , 2°C
Dew Point: 39°F , 4°C
Humidity: 100%
Barometer: 30.15 inHg , 1021 hPa
Clouds: Mostly Cloudy
Visibility: 1 mile , 1 km
Cloud details: Few Clouds 600 ft
Partly Cloudy 4600 ft
Mostly Cloudy 6000 ft
2018/02/18 03:50 EGVP 180350Z AUTO 14005KT 1300 // FEW006/// SCT046/// BKN060/// 04/04 Q1021
EGHI - Southampton Wx C, United Kingdom
Distance from station: SSW 24mi, 39km
Updated: Sat, 17-Feb-2018 21:20 GMT
NOT Current
Few Clouds
Few Clouds
 Wind from ESE
Wind: ESE 1 mph , 2 km/h
Temperature: 37°F , 3°C
Dew Point: 34°F , 1°C
Humidity: 87%
Barometer: 30.21 inHg , 1023 hPa
Clouds: Few Clouds
Visibility: 6 miles , 10 km
Cloud details: Few Clouds 1600 ft
2018/02/17 21:20 EGHI 172120Z 11001KT 9999 FEW016 03/01 Q1023
 
EGUB - Benson Raf, United Kingdom
Distance from station: N 24mi, 39km
Updated: Sun, 18-Feb-2018 03:50 GMT
Clear
Clear
 Wind from SSE
Wind: SSE 6 mph , 9 km/h
Temperature: 36°F , 2°C
Wind Chill: 31°F , -1°C
Dew Point: 36°F , 2°C
Humidity: 100%
Barometer: 30.15 inHg , 1021 hPa
Clouds: Clear
Visibility: 6 miles , 9 km
2018/02/18 03:50 EGUB 180350Z AUTO 16005KT 9000 // NCD 02/02 Q1021
EGDM - Boscombe Down, United Kingdom
Distance from station: WSW 29mi, 47km
Updated: Sun, 18-Feb-2018 03:50 GMT
Fog
Fog
 Wind from SE
Wind: SE 8 mph , 13 km/h
Temperature: 39°F , 4°C
Wind Chill: 33°F , 1°C
Dew Point: 39°F , 4°C
Humidity: 100%
Barometer: 30.15 inHg , 1021 hPa
Summary: Fog
Visibility: 0 mile , 1 km
2018/02/18 03:50 EGDM 180350Z AUTO 13007KT 0500 FG VV/// 04/04 Q1021
 
EGLL - London/Heathrow, United Kingdom
Distance from station: ENE 31mi, 51km
Updated: Sun, 18-Feb-2018 04:20 GMT
Mostly Cloudy
Mostly Cloudy
 Wind from SSE
Wind: SSE 2 mph , 4 km/h
Temperature: 36°F , 2°C
Dew Point: 36°F , 2°C
Humidity: 100%
Barometer: 30.18 inHg , 1022 hPa
Clouds: Mostly Cloudy
Visibility: 4 miles , 7 km
Cloud details: Mostly Cloudy 400 ft
2018/02/18 04:20 EGLL 180420Z AUTO 15002KT 7000 BKN004 02/02 Q1022
EGWU - Northolt Raf, United Kingdom
Distance from station: NE 35mi, 56km
Updated: Sun, 18-Feb-2018 03:50 GMT
Clear
Clear
 Wind from ENE
Wind: ENE 1 mph , 2 km/h
Temperature: 30°F , -1°C
Dew Point: 30°F , -1°C
Humidity: 100%
Barometer: 30.18 inHg , 1022 hPa
Clouds: Clear
Visibility: 6 miles , 10 km
2018/02/18 03:50 EGWU 180350Z AUTO 07001KT 9999 // NCD M01/M01 Q1022
 
EGVA - Fairford Raf, United Kingdom
Distance from station: NW 40mi, 65km
Updated: Sun, 18-Feb-2018 04:41 GMT
Mist, Overcast
Mist, Overcast
 Wind from calm
Wind: Calm
Temperature: 41°F , 5°C
Dew Point: 39°F , 4°C
Humidity: 93%
Barometer: 30.13 inHg , 1020.3 hPa
Summary: Mist
Clouds: Overcast
Cloud details: Partly Cloudy 400 ft
Overcast 6000 ft
2018/02/18 04:41 EGVA 180441Z AUTO 00000KT M BR SCT004 OVC060 05/04 A3013 RMK AO2 SLP209 RVRNO $
EGKK - London/Gatwick A, United Kingdom
Distance from station: ESE 41mi, 66km
Updated: Sun, 18-Feb-2018 04:20 GMT
Mist, Partly cloudy
Mist, Partly cloudy
 Wind from E
Wind: E 5 mph , 7 km/h
Temperature: 30°F , -1°C
Wind Chill: 25°F , -4°C
Dew Point: 30°F , -1°C
Humidity: 100%
Barometer: 30.18 inHg , 1022 hPa
Summary: Mist
Clouds: Partly Cloudy
Visibility: 3 miles , 5 km
Cloud details: Partly Cloudy 1500 ft
2018/02/18 04:20 EGKK 180420Z 08004KT 5000 BR SCT015 M01/M01 Q1022
 
EGVN - Brize Norton Raf, United Kingdom
Distance from station: NNW 41mi, 66km
Updated: Sun, 18-Feb-2018 03:50 GMT
Mist, Mostly cloudy
Mist, Mostly cloudy
 Wind from ENE
Wind: ENE 1 mph , 2 km/h
Temperature: 39°F , 4°C
Dew Point: 37°F , 3°C
Humidity: 93%
Barometer: 30.15 inHg , 1021 hPa
Summary: Mist
Clouds: Mostly Cloudy
Visibility: 2 miles , 4 km
Cloud details: Mostly Cloudy 400 ft
2018/02/18 03:50 EGVN 180350Z 07001KT 4000 BR BKN004 04/03 Q1021 TEMPO 3000
EGKA - Shoreham-By-Sea, United Kingdom
Distance from station: SE 45mi, 73km
Updated: Sat, 17-Feb-2018 19:50 GMT
NOT Current
Few Clouds
Few Clouds
 Wind from SSE
Wind: SSE 3 mph , 6 km/h
Temperature: 43°F , 6°C
Dew Point: 41°F , 5°C
Humidity: 93%
Barometer: 30.21 inHg , 1023 hPa
Clouds: Few Clouds
Visibility: 6 miles , 10 km
Cloud details: Few Clouds 4500 ft
2018/02/17 19:50 EGKA 171950Z 15003KT 9999 FEW045 06/05 Q1023
 
EGHH - Bournemouth Airp, United Kingdom
Distance from station: SW 46mi, 75km
Updated: Sat, 17-Feb-2018 20:20 GMT
NOT Current
Few Clouds
Few Clouds
 Wind from calm
Wind: Calm
Temperature: 43°F , 6°C
Dew Point: 39°F , 4°C
Humidity: 87%
Barometer: 30.21 inHg , 1023 hPa
Clouds: Few Clouds
Visibility: 6 miles , 10 km
Cloud details: Few Clouds 1100 ft
2018/02/17 20:20 EGHH 172020Z 00000KT 9999 FEW011 06/04 Q1023
EGKB - Biggin Hill, United Kingdom
Distance from station: E 48mi, 77km
Updated: Sat, 17-Feb-2018 21:20 GMT
NOT Current
Partly Cloudy
Partly Cloudy
 Wind from S
Wind: S 10 mph , 17 km/h
Temperature: 41°F , 5°C
Wind Chill: 35°F , 2°C
Dew Point: 37°F , 3°C
Humidity: 87%
Barometer: 30.21 inHg , 1023 hPa
Clouds: Partly Cloudy
Visibility: 6 miles , 10 km
Cloud details: Partly Cloudy 4000 ft
2018/02/17 21:20 EGKB 172120Z 19009KT 9999 SCT040 05/03 Q1023

Metar display script from Saratoga-Weather.org